sensor_id;sensor_type;location;lat;lon;timestamp;temperature;humidity
11112;DHT22;5609;49.466;8.468;2023-03-21T00:02:15;10.20;99.90
11112;DHT22;5609;49.466;8.468;2023-03-21T00:04:42;10.20;99.90
11112;DHT22;5609;49.466;8.468;2023-03-21T00:07:09;10.20;99.90
11112;DHT22;5609;49.466;8.468;2023-03-21T00:09:37;10.20;99.90
11112;DHT22;5609;49.466;8.468;2023-03-21T00:12:04;10.10;99.90
11112;DHT22;5609;49.466;8.468;2023-03-21T00:14:31;10.10;99.90
11112;DHT22;5609;49.466;8.468;2023-03-21T00:16:59;10.10;99.90
11112;DHT22;5609;49.466;8.468;2023-03-21T00:19:25;10.10;99.90
11112;DHT22;5609;49.466;8.468;2023-03-21T00:21:53;10.10;99.90
11112;DHT22;5609;49.466;8.468;2023-03-21T00:24:20;10.10;99.90
11112;DHT22;5609;49.466;8.468;2023-03-21T00:26:49;10.10;99.90
11112;DHT22;5609;49.466;8.468;2023-03-21T00:29:16;10.10;99.90
11112;DHT22;5609;49.466;8.468;2023-03-21T00:31:42;10.10;99.90
11112;DHT22;5609;49.466;8.468;2023-03-21T00:34:09;10.10;99.90
11112;DHT22;5609;49.466;8.468;2023-03-21T00:36:36;10.10;99.90
11112;DHT22;5609;49.466;8.468;2023-03-21T00:39:03;10.10;99.90
11112;DHT22;5609;49.466;8.468;2023-03-21T00:41:31;10.00;99.90
11112;DHT22;5609;49.466;8.468;2023-03-21T00:43:59;10.00;99.90
11112;DHT22;5609;49.466;8.468;2023-03-21T00:46:26;10.00;99.90
11112;DHT22;5609;49.466;8.468;2023-03-21T00:48:52;10.00;99.90
11112;DHT22;5609;49.466;8.468;2023-03-21T00:51:21;9.90;99.90
11112;DHT22;5609;49.466;8.468;2023-03-21T00:53:51;9.90;99.90
11112;DHT22;5609;49.466;8.468;2023-03-21T00:56:17;9.90;99.90
11112;DHT22;5609;49.466;8.468;2023-03-21T00:58:44;10.00;99.90
11112;DHT22;5609;49.466;8.468;2023-03-21T01:01:12;9.90;99.90
11112;DHT22;5609;49.466;8.468;2023-03-21T01:03:39;9.90;99.90
11112;DHT22;5609;49.466;8.468;2023-03-21T01:06:16;9.90;99.90
11112;DHT22;5609;49.466;8.468;2023-03-21T01:08:44;9.90;99.90
11112;DHT22;5609;49.466;8.468;2023-03-21T01:11:14;9.90;99.90
11112;DHT22;5609;49.466;8.468;2023-03-21T01:13:41;9.90;99.90
11112;DHT22;5609;49.466;8.468;2023-03-21T01:16:09;9.90;99.90
11112;DHT22;5609;49.466;8.468;2023-03-21T01:18:39;9.90;99.90
11112;DHT22;5609;49.466;8.468;2023-03-21T01:21:08;9.90;99.90
11112;DHT22;5609;49.466;8.468;2023-03-21T01:23:35;9.90;99.90
11112;DHT22;5609;49.466;8.468;2023-03-21T01:26:02;9.90;99.90
11112;DHT22;5609;49.466;8.468;2023-03-21T01:28:30;9.90;99.90
11112;DHT22;5609;49.466;8.468;2023-03-21T01:30:58;9.90;99.90
11112;DHT22;5609;49.466;8.468;2023-03-21T01:33:26;9.90;99.90
11112;DHT22;5609;49.466;8.468;2023-03-21T01:35:54;9.90;99.90
11112;DHT22;5609;49.466;8.468;2023-03-21T01:38:21;9.90;99.90
11112;DHT22;5609;49.466;8.468;2023-03-21T01:40:48;9.90;99.90
11112;DHT22;5609;49.466;8.468;2023-03-21T01:43:24;9.90;99.90
11112;DHT22;5609;49.466;8.468;2023-03-21T01:46:25;9.90;99.90
11112;DHT22;5609;49.466;8.468;2023-03-21T01:48:56;9.90;99.90
11112;DHT22;5609;49.466;8.468;2023-03-21T01:51:26;9.80;99.90
11112;DHT22;5609;49.466;8.468;2023-03-21T01:53:53;9.90;99.90
11112;DHT22;5609;49.466;8.468;2023-03-21T01:56:23;9.90;99.90
11112;DHT22;5609;49.466;8.468;2023-03-21T01:58:54;9.80;99.90
11112;DHT22;5609;49.466;8.468;2023-03-21T02:01:22;9.90;99.90
11112;DHT22;5609;49.466;8.468;2023-03-21T02:03:49;9.80;99.90
11112;DHT22;5609;49.466;8.468;2023-03-21T02:06:27;9.80;99.90
11112;DHT22;5609;49.466;8.468;2023-03-21T02:08:58;9.80;99.90
11112;DHT22;5609;49.466;8.468;2023-03-21T02:11:26;9.80;99.90
11112;DHT22;5609;49.466;8.468;2023-03-21T02:13:54;9.80;99.90
11112;DHT22;5609;49.466;8.468;2023-03-21T02:16:28;9.70;99.90
11112;DHT22;5609;49.466;8.468;2023-03-21T02:19:11;9.80;99.90
11112;DHT22;5609;49.466;8.468;2023-03-21T02:27:49;9.70;99.90
11112;DHT22;5609;49.466;8.468;2023-03-21T02:30:47;9.70;99.90
11112;DHT22;5609;49.466;8.468;2023-03-21T02:33:40;9.70;99.90
11112;DHT22;5609;49.466;8.468;2023-03-21T02:36:21;9.70;99.90
11112;DHT22;5609;49.466;8.468;2023-03-21T02:38:54;9.70;99.90
11112;DHT22;5609;49.466;8.468;2023-03-21T02:41:31;9.70;99.90
11112;DHT22;5609;49.466;8.468;2023-03-21T02:44:06;9.70;99.90
11112;DHT22;5609;49.466;8.468;2023-03-21T02:46:41;9.60;99.90
11112;DHT22;5609;49.466;8.468;2023-03-21T02:49:13;9.60;99.90
11112;DHT22;5609;49.466;8.468;2023-03-21T02:51:44;9.60;99.90
11112;DHT22;5609;49.466;8.468;2023-03-21T02:54:16;9.60;99.90
11112;DHT22;5609;49.466;8.468;2023-03-21T02:56:44;9.60;99.90
11112;DHT22;5609;49.466;8.468;2023-03-21T02:59:12;9.60;99.90
11112;DHT22;5609;49.466;8.468;2023-03-21T03:01:39;9.60;99.90
11112;DHT22;5609;49.466;8.468;2023-03-21T03:04:19;9.60;99.90
11112;DHT22;5609;49.466;8.468;2023-03-21T03:07:02;9.50;99.90
11112;DHT22;5609;49.466;8.468;2023-03-21T03:09:38;9.50;99.90
11112;DHT22;5609;49.466;8.468;2023-03-21T03:12:15;9.50;99.90
11112;DHT22;5609;49.466;8.468;2023-03-21T03:14:49;9.50;99.90
11112;DHT22;5609;49.466;8.468;2023-03-21T03:17:23;9.50;99.90
11112;DHT22;5609;49.466;8.468;2023-03-21T03:20:03;9.50;99.90
11112;DHT22;5609;49.466;8.468;2023-03-21T03:22:45;9.40;99.90
11112;DHT22;5609;49.466;8.468;2023-03-21T03:25:18;9.40;99.90
11112;DHT22;5609;49.466;8.468;2023-03-21T03:27:48;9.30;99.90
11112;DHT22;5609;49.466;8.468;2023-03-21T03:30:16;9.30;99.90
11112;DHT22;5609;49.466;8.468;2023-03-21T03:32:46;9.30;99.90
11112;DHT22;5609;49.466;8.468;2023-03-21T03:35:16;9.30;99.90
11112;DHT22;5609;49.466;8.468;2023-03-21T03:37:46;9.40;99.90
11112;DHT22;5609;49.466;8.468;2023-03-21T03:40:19;9.40;99.90
11112;DHT22;5609;49.466;8.468;2023-03-21T03:42:51;9.30;99.90
11112;DHT22;5609;49.466;8.468;2023-03-21T03:45:19;9.30;99.90
11112;DHT22;5609;49.466;8.468;2023-03-21T03:47:49;9.30;99.90
11112;DHT22;5609;49.466;8.468;2023-03-21T03:50:23;9.20;99.90
11112;DHT22;5609;49.466;8.468;2023-03-21T03:52:55;9.20;99.90
11112;DHT22;5609;49.466;8.468;2023-03-21T03:55:27;9.20;99.90
11112;DHT22;5609;49.466;8.468;2023-03-21T03:57:59;9.20;99.90
11112;DHT22;5609;49.466;8.468;2023-03-21T04:00:26;9.20;99.90
11112;DHT22;5609;49.466;8.468;2023-03-21T04:02:57;9.20;99.90
11112;DHT22;5609;49.466;8.468;2023-03-21T04:05:24;9.20;99.90
11112;DHT22;5609;49.466;8.468;2023-03-21T04:07:51;9.20;99.90
11112;DHT22;5609;49.466;8.468;2023-03-21T04:10:18;9.20;99.90
11112;DHT22;5609;49.466;8.468;2023-03-21T04:12:47;9.20;99.90
11112;DHT22;5609;49.466;8.468;2023-03-21T04:15:14;9.20;99.90
11112;DHT22;5609;49.466;8.468;2023-03-21T04:17:41;9.30;99.90
11112;DHT22;5609;49.466;8.468;2023-03-21T04:20:10;9.30;99.90
11112;DHT22;5609;49.466;8.468;2023-03-21T04:22:37;9.30;99.90
11112;DHT22;5609;49.466;8.468;2023-03-21T04:25:04;9.30;99.90
11112;DHT22;5609;49.466;8.468;2023-03-21T04:27:31;9.30;99.90
11112;DHT22;5609;49.466;8.468;2023-03-21T04:29:59;9.30;99.90
11112;DHT22;5609;49.466;8.468;2023-03-21T04:32:26;9.30;99.90
11112;DHT22;5609;49.466;8.468;2023-03-21T04:34:53;9.30;99.90
11112;DHT22;5609;49.466;8.468;2023-03-21T04:37:21;9.30;99.90
11112;DHT22;5609;49.466;8.468;2023-03-21T04:39:49;9.30;99.90
11112;DHT22;5609;49.466;8.468;2023-03-21T04:42:17;9.30;99.90
11112;DHT22;5609;49.466;8.468;2023-03-21T04:44:44;9.30;99.90
11112;DHT22;5609;49.466;8.468;2023-03-21T04:47:12;9.20;99.90
11112;DHT22;5609;49.466;8.468;2023-03-21T04:49:40;9.20;99.90
11112;DHT22;5609;49.466;8.468;2023-03-21T04:52:07;9.20;99.90
11112;DHT22;5609;49.466;8.468;2023-03-21T04:54:33;9.20;99.90
11112;DHT22;5609;49.466;8.468;2023-03-21T04:57:01;9.10;99.90
11112;DHT22;5609;49.466;8.468;2023-03-21T04:59:29;9.10;99.90
11112;DHT22;5609;49.466;8.468;2023-03-21T05:01:55;9.20;99.90
11112;DHT22;5609;49.466;8.468;2023-03-21T05:04:24;9.10;99.90
11112;DHT22;5609;49.466;8.468;2023-03-21T05:06:52;9.00;99.90
11112;DHT22;5609;49.466;8.468;2023-03-21T05:09:19;9.10;99.90
11112;DHT22;5609;49.466;8.468;2023-03-21T05:11:47;9.00;99.90
11112;DHT22;5609;49.466;8.468;2023-03-21T05:14:16;9.00;99.90
11112;DHT22;5609;49.466;8.468;2023-03-21T05:16:44;9.00;99.90
11112;DHT22;5609;49.466;8.468;2023-03-21T05:19:13;9.00;99.90
11112;DHT22;5609;49.466;8.468;2023-03-21T05:21:41;9.00;99.90
11112;DHT22;5609;49.466;8.468;2023-03-21T05:24:12;9.00;99.90
11112;DHT22;5609;49.466;8.468;2023-03-21T05:26:40;9.00;99.90
11112;DHT22;5609;49.466;8.468;2023-03-21T05:29:07;9.00;99.90
11112;DHT22;5609;49.466;8.468;2023-03-21T05:31:34;8.90;99.90
11112;DHT22;5609;49.466;8.468;2023-03-21T05:34:01;8.90;99.90
11112;DHT22;5609;49.466;8.468;2023-03-21T05:36:28;8.90;99.90
11112;DHT22;5609;49.466;8.468;2023-03-21T05:38:56;8.90;99.90
11112;DHT22;5609;49.466;8.468;2023-03-21T05:41:22;9.00;99.90
11112;DHT22;5609;49.466;8.468;2023-03-21T05:43:49;9.00;99.90
11112;DHT22;5609;49.466;8.468;2023-03-21T05:46:16;9.00;99.90
11112;DHT22;5609;49.466;8.468;2023-03-21T05:48:43;9.00;99.90
11112;DHT22;5609;49.466;8.468;2023-03-21T05:51:09;9.00;99.90
11112;DHT22;5609;49.466;8.468;2023-03-21T05:53:36;9.00;99.90
11112;DHT22;5609;49.466;8.468;2023-03-21T05:56:05;9.00;99.90
11112;DHT22;5609;49.466;8.468;2023-03-21T05:58:32;9.00;99.90
11112;DHT22;5609;49.466;8.468;2023-03-21T06:00:59;9.00;99.90
11112;DHT22;5609;49.466;8.468;2023-03-21T06:03:26;9.10;99.90
11112;DHT22;5609;49.466;8.468;2023-03-21T06:05:53;9.10;99.90
11112;DHT22;5609;49.466;8.468;2023-03-21T06:08:20;9.20;99.90
11112;DHT22;5609;49.466;8.468;2023-03-21T06:10:46;9.20;99.90
11112;DHT22;5609;49.466;8.468;2023-03-21T06:13:14;9.30;99.90
11112;DHT22;5609;49.466;8.468;2023-03-21T06:15:41;9.40;99.90
11112;DHT22;5609;49.466;8.468;2023-03-21T06:18:08;10.00;99.90
11112;DHT22;5609;49.466;8.468;2023-03-21T06:20:34;10.80;99.90
11112;DHT22;5609;49.466;8.468;2023-03-21T06:23:01;11.60;99.90
11112;DHT22;5609;49.466;8.468;2023-03-21T06:25:28;12.20;99.90
11112;DHT22;5609;49.466;8.468;2023-03-21T06:27:55;12.50;99.90
11112;DHT22;5609;49.466;8.468;2023-03-21T06:30:23;13.00;99.90
11112;DHT22;5609;49.466;8.468;2023-03-21T06:32:50;13.30;99.90
11112;DHT22;5609;49.466;8.468;2023-03-21T06:35:17;13.70;99.90
11112;DHT22;5609;49.466;8.468;2023-03-21T06:37:44;13.80;99.90
11112;DHT22;5609;49.466;8.468;2023-03-21T06:40:13;13.80;99.90
11112;DHT22;5609;49.466;8.468;2023-03-21T06:42:40;13.90;99.90
11112;DHT22;5609;49.466;8.468;2023-03-21T06:45:08;14.10;99.90
11112;DHT22;5609;49.466;8.468;2023-03-21T06:47:36;14.20;99.90
11112;DHT22;5609;49.466;8.468;2023-03-21T06:50:03;14.30;99.90
11112;DHT22;5609;49.466;8.468;2023-03-21T06:52:31;14.40;99.90
11112;DHT22;5609;49.466;8.468;2023-03-21T06:54:58;14.40;99.90
11112;DHT22;5609;49.466;8.468;2023-03-21T06:57:25;14.40;99.90
11112;DHT22;5609;49.466;8.468;2023-03-21T06:59:51;14.50;99.90
11112;DHT22;5609;49.466;8.468;2023-03-21T07:02:18;14.40;99.90
11112;DHT22;5609;49.466;8.468;2023-03-21T07:04:46;14.40;99.90
11112;DHT22;5609;49.466;8.468;2023-03-21T07:07:13;14.50;99.90
11112;DHT22;5609;49.466;8.468;2023-03-21T07:09:40;14.70;99.90
11112;DHT22;5609;49.466;8.468;2023-03-21T07:12:07;14.70;99.90
11112;DHT22;5609;49.466;8.468;2023-03-21T07:14:34;14.60;99.90
11112;DHT22;5609;49.466;8.468;2023-03-21T07:17:01;14.70;99.90
11112;DHT22;5609;49.466;8.468;2023-03-21T07:19:28;14.60;99.90
11112;DHT22;5609;49.466;8.468;2023-03-21T07:21:56;14.60;99.90
11112;DHT22;5609;49.466;8.468;2023-03-21T07:24:24;14.70;99.90
11112;DHT22;5609;49.466;8.468;2023-03-21T07:26:51;14.70;99.90
11112;DHT22;5609;49.466;8.468;2023-03-21T07:29:18;14.80;99.90
11112;DHT22;5609;49.466;8.468;2023-03-21T07:31:47;14.90;99.90
11112;DHT22;5609;49.466;8.468;2023-03-21T07:34:14;14.90;99.90
11112;DHT22;5609;49.466;8.468;2023-03-21T07:36:42;15.00;99.90
11112;DHT22;5609;49.466;8.468;2023-03-21T07:39:10;15.20;99.90
11112;DHT22;5609;49.466;8.468;2023-03-21T07:41:37;15.30;99.90
11112;DHT22;5609;49.466;8.468;2023-03-21T07:44:04;15.20;99.90
11112;DHT22;5609;49.466;8.468;2023-03-21T07:46:30;15.30;99.90
11112;DHT22;5609;49.466;8.468;2023-03-21T07:48:57;15.20;99.90
11112;DHT22;5609;49.466;8.468;2023-03-21T07:51:24;15.20;99.90
11112;DHT22;5609;49.466;8.468;2023-03-21T07:53:50;15.40;99.90
11112;DHT22;5609;49.466;8.468;2023-03-21T07:56:19;15.70;99.90
11112;DHT22;5609;49.466;8.468;2023-03-21T07:58:46;15.90;99.90
11112;DHT22;5609;49.466;8.468;2023-03-21T08:01:13;15.90;99.90
11112;DHT22;5609;49.466;8.468;2023-03-21T08:03:39;16.00;99.90
11112;DHT22;5609;49.466;8.468;2023-03-21T08:06:08;16.00;99.90
11112;DHT22;5609;49.466;8.468;2023-03-21T08:08:36;16.10;99.90
11112;DHT22;5609;49.466;8.468;2023-03-21T08:11:03;16.30;99.90
11112;DHT22;5609;49.466;8.468;2023-03-21T08:13:32;16.50;99.90
11112;DHT22;5609;49.466;8.468;2023-03-21T08:15:59;16.70;99.90
11112;DHT22;5609;49.466;8.468;2023-03-21T08:18:26;16.60;99.90
11112;DHT22;5609;49.466;8.468;2023-03-21T08:20:53;16.30;99.90
11112;DHT22;5609;49.466;8.468;2023-03-21T08:23:21;16.00;99.90
11112;DHT22;5609;49.466;8.468;2023-03-21T08:25:50;16.20;99.90
11112;DHT22;5609;49.466;8.468;2023-03-21T08:28:17;16.00;99.90
11112;DHT22;5609;49.466;8.468;2023-03-21T08:30:45;16.10;99.90
11112;DHT22;5609;49.466;8.468;2023-03-21T08:33:12;16.20;99.90
11112;DHT22;5609;49.466;8.468;2023-03-21T08:35:39;16.30;99.90
11112;DHT22;5609;49.466;8.468;2023-03-21T08:38:06;16.30;99.90
11112;DHT22;5609;49.466;8.468;2023-03-21T08:40:33;16.30;99.90
11112;DHT22;5609;49.466;8.468;2023-03-21T08:43:01;16.40;99.90
11112;DHT22;5609;49.466;8.468;2023-03-21T08:45:28;16.50;99.90
11112;DHT22;5609;49.466;8.468;2023-03-21T08:47:56;16.60;99.90
11112;DHT22;5609;49.466;8.468;2023-03-21T08:50:25;16.60;99.90
11112;DHT22;5609;49.466;8.468;2023-03-21T08:52:53;16.60;99.90
11112;DHT22;5609;49.466;8.468;2023-03-21T08:55:20;16.40;99.90
11112;DHT22;5609;49.466;8.468;2023-03-21T08:57:47;16.30;99.90
11112;DHT22;5609;49.466;8.468;2023-03-21T09:00:15;16.10;99.90
11112;DHT22;5609;49.466;8.468;2023-03-21T09:02:44;16.20;99.90
11112;DHT22;5609;49.466;8.468;2023-03-21T09:05:13;16.40;99.90
11112;DHT22;5609;49.466;8.468;2023-03-21T09:07:41;16.40;99.90
11112;DHT22;5609;49.466;8.468;2023-03-21T09:10:12;16.70;99.90
11112;DHT22;5609;49.466;8.468;2023-03-21T09:12:39;16.80;99.90
11112;DHT22;5609;49.466;8.468;2023-03-21T09:15:06;16.70;99.90
11112;DHT22;5609;49.466;8.468;2023-03-21T09:17:33;16.80;99.90
11112;DHT22;5609;49.466;8.468;2023-03-21T09:20:00;16.70;99.90
11112;DHT22;5609;49.466;8.468;2023-03-21T09:22:37;16.70;99.90
11112;DHT22;5609;49.466;8.468;2023-03-21T09:25:05;16.70;99.90
11112;DHT22;5609;49.466;8.468;2023-03-21T09:27:35;16.80;99.90
11112;DHT22;5609;49.466;8.468;2023-03-21T09:30:03;16.80;99.90
11112;DHT22;5609;49.466;8.468;2023-03-21T09:32:31;16.60;99.90
11112;DHT22;5609;49.466;8.468;2023-03-21T09:34:58;16.70;99.90
11112;DHT22;5609;49.466;8.468;2023-03-21T09:37:25;16.60;99.90
11112;DHT22;5609;49.466;8.468;2023-03-21T09:39:53;16.60;99.90
11112;DHT22;5609;49.466;8.468;2023-03-21T09:42:32;16.70;99.90
11112;DHT22;5609;49.466;8.468;2023-03-21T09:45:07;16.80;99.90
11112;DHT22;5609;49.466;8.468;2023-03-21T09:47:41;16.90;99.90
11112;DHT22;5609;49.466;8.468;2023-03-21T09:50:15;17.10;99.90
11112;DHT22;5609;49.466;8.468;2023-03-21T09:52:47;17.10;99.90
11112;DHT22;5609;49.466;8.468;2023-03-21T09:55:19;17.10;99.90
11112;DHT22;5609;49.466;8.468;2023-03-21T09:57:50;16.90;99.90
11112;DHT22;5609;49.466;8.468;2023-03-21T10:00:26;17.00;99.90
11112;DHT22;5609;49.466;8.468;2023-03-21T10:02:58;17.00;99.90
11112;DHT22;5609;49.466;8.468;2023-03-21T10:05:29;16.90;99.90
11112;DHT22;5609;49.466;8.468;2023-03-21T10:08:01;17.00;99.90
11112;DHT22;5609;49.466;8.468;2023-03-21T10:10:34;17.10;99.90
11112;DHT22;5609;49.466;8.468;2023-03-21T10:13:01;17.00;99.90
11112;DHT22;5609;49.466;8.468;2023-03-21T10:15:28;17.00;99.90
11112;DHT22;5609;49.466;8.468;2023-03-21T10:17:58;16.80;99.90
11112;DHT22;5609;49.466;8.468;2023-03-21T10:20:29;16.80;99.90
11112;DHT22;5609;49.466;8.468;2023-03-21T10:22:59;16.60;99.90
11112;DHT22;5609;49.466;8.468;2023-03-21T10:25:33;16.70;99.90
11112;DHT22;5609;49.466;8.468;2023-03-21T10:28:03;16.60;99.90
11112;DHT22;5609;49.466;8.468;2023-03-21T10:30:39;16.70;99.90
11112;DHT22;5609;49.466;8.468;2023-03-21T10:33:10;16.70;99.90
11112;DHT22;5609;49.466;8.468;2023-03-21T10:35:41;16.60;99.90
11112;DHT22;5609;49.466;8.468;2023-03-21T10:38:14;16.60;99.90
11112;DHT22;5609;49.466;8.468;2023-03-21T10:40:43;16.60;99.90
11112;DHT22;5609;49.466;8.468;2023-03-21T10:43:17;16.60;99.90
11112;DHT22;5609;49.466;8.468;2023-03-21T10:45:45;16.50;99.90
11112;DHT22;5609;49.466;8.468;2023-03-21T10:48:13;16.60;99.90
11112;DHT22;5609;49.466;8.468;2023-03-21T10:50:40;16.70;99.90
11112;DHT22;5609;49.466;8.468;2023-03-21T10:53:14;16.60;99.90
11112;DHT22;5609;49.466;8.468;2023-03-21T10:55:44;16.50;99.90
11112;DHT22;5609;49.466;8.468;2023-03-21T10:58:15;16.60;99.90
11112;DHT22;5609;49.466;8.468;2023-03-21T11:00:44;16.60;99.90
11112;DHT22;5609;49.466;8.468;2023-03-21T11:03:20;16.70;99.90
11112;DHT22;5609;49.466;8.468;2023-03-21T11:05:52;16.60;99.90
11112;DHT22;5609;49.466;8.468;2023-03-21T11:08:21;16.50;99.90
11112;DHT22;5609;49.466;8.468;2023-03-21T11:10:53;16.50;99.90
11112;DHT22;5609;49.466;8.468;2023-03-21T11:13:25;16.60;99.90
11112;DHT22;5609;49.466;8.468;2023-03-21T11:15:54;16.50;99.90
11112;DHT22;5609;49.466;8.468;2023-03-21T11:18:23;16.60;99.90
11112;DHT22;5609;49.466;8.468;2023-03-21T11:20:52;16.70;99.90
11112;DHT22;5609;49.466;8.468;2023-03-21T11:23:20;16.80;99.90
11112;DHT22;5609;49.466;8.468;2023-03-21T11:25:52;17.10;99.90
11112;DHT22;5609;49.466;8.468;2023-03-21T11:28:21;17.30;99.90
11112;DHT22;5609;49.466;8.468;2023-03-21T11:30:53;17.30;99.90
11112;DHT22;5609;49.466;8.468;2023-03-21T11:33:21;17.40;99.90
11112;DHT22;5609;49.466;8.468;2023-03-21T11:36:02;17.60;99.90
11112;DHT22;5609;49.466;8.468;2023-03-21T11:38:32;17.80;99.90
11112;DHT22;5609;49.466;8.468;2023-03-21T11:41:03;18.00;99.90
11112;DHT22;5609;49.466;8.468;2023-03-21T11:43:31;18.20;99.90
11112;DHT22;5609;49.466;8.468;2023-03-21T11:46:05;18.30;99.90
11112;DHT22;5609;49.466;8.468;2023-03-21T11:48:36;18.40;99.90
11112;DHT22;5609;49.466;8.468;2023-03-21T11:51:11;18.40;99.90
11112;DHT22;5609;49.466;8.468;2023-03-21T11:53:46;18.40;99.90
11112;DHT22;5609;49.466;8.468;2023-03-21T11:56:21;18.30;99.90
11112;DHT22;5609;49.466;8.468;2023-03-21T11:59:17;18.50;99.90
11112;DHT22;5609;49.466;8.468;2023-03-21T12:01:59;18.40;99.90
11112;DHT22;5609;49.466;8.468;2023-03-21T12:04:37;18.30;99.90
11112;DHT22;5609;49.466;8.468;2023-03-21T12:07:18;18.40;99.90
11112;DHT22;5609;49.466;8.468;2023-03-21T12:09:55;18.50;99.90
11112;DHT22;5609;49.466;8.468;2023-03-21T12:12:33;18.60;99.90
11112;DHT22;5609;49.466;8.468;2023-03-21T12:15:08;18.70;95.60
11112;DHT22;5609;49.466;8.468;2023-03-21T12:17:42;18.60;96.10
11112;DHT22;5609;49.466;8.468;2023-03-21T12:20:25;18.60;99.90
11112;DHT22;5609;49.466;8.468;2023-03-21T12:25:51;19.00;90.30
11112;DHT22;5609;49.466;8.468;2023-03-21T12:28:31;19.00;90.50
11112;DHT22;5609;49.466;8.468;2023-03-21T12:31:05;18.90;93.70
11112;DHT22;5609;49.466;8.468;2023-03-21T12:33:55;19.00;90.40
11112;DHT22;5609;49.466;8.468;2023-03-21T12:36:36;19.00;91.80
11112;DHT22;5609;49.466;8.468;2023-03-21T12:39:17;19.10;99.90
11112;DHT22;5609;49.466;8.468;2023-03-21T12:41:52;18.70;94.00
11112;DHT22;5609;49.466;8.468;2023-03-21T12:44:27;18.90;86.70
11112;DHT22;5609;49.466;8.468;2023-03-21T12:46:58;19.00;92.90
11112;DHT22;5609;49.466;8.468;2023-03-21T12:49:30;19.20;92.40
11112;DHT22;5609;49.466;8.468;2023-03-21T12:52:01;19.40;90.60
11112;DHT22;5609;49.466;8.468;2023-03-21T12:54:33;19.60;84.00
11112;DHT22;5609;49.466;8.468;2023-03-21T12:57:07;19.70;87.50
11112;DHT22;5609;49.466;8.468;2023-03-21T12:59:40;19.50;75.50
11112;DHT22;5609;49.466;8.468;2023-03-21T13:02:17;19.30;97.20
11112;DHT22;5609;49.466;8.468;2023-03-21T13:04:51;19.10;82.70
11112;DHT22;5609;49.466;8.468;2023-03-21T13:07:22;18.90;99.90
11112;DHT22;5609;49.466;8.468;2023-03-21T13:09:51;18.90;96.20
11112;DHT22;5609;49.466;8.468;2023-03-21T13:12:39;18.80;94.30
11112;DHT22;5609;49.466;8.468;2023-03-21T13:15:32;18.80;97.40
11112;DHT22;5609;49.466;8.468;2023-03-21T13:18:12;18.70;99.90
11112;DHT22;5609;49.466;8.468;2023-03-21T13:20:45;18.60;99.90
11112;DHT22;5609;49.466;8.468;2023-03-21T13:23:13;18.60;99.90
11112;DHT22;5609;49.466;8.468;2023-03-21T13:25:42;18.40;99.90
11112;DHT22;5609;49.466;8.468;2023-03-21T13:28:18;18.40;99.90
11112;DHT22;5609;49.466;8.468;2023-03-21T13:30:47;18.40;94.00
11112;DHT22;5609;49.466;8.468;2023-03-21T13:33:18;18.10;85.80
11112;DHT22;5609;49.466;8.468;2023-03-21T13:35:57;18.00;99.90
11112;DHT22;5609;49.466;8.468;2023-03-21T13:38:31;18.00;99.90
11112;DHT22;5609;49.466;8.468;2023-03-21T13:41:00;17.80;99.90
11112;DHT22;5609;49.466;8.468;2023-03-21T13:43:39;17.90;99.90
11112;DHT22;5609;49.466;8.468;2023-03-21T13:46:09;18.10;99.90
11112;DHT22;5609;49.466;8.468;2023-03-21T13:48:53;18.00;99.90
11112;DHT22;5609;49.466;8.468;2023-03-21T13:51:40;17.80;99.90
11112;DHT22;5609;49.466;8.468;2023-03-21T13:54:17;17.50;99.90
11112;DHT22;5609;49.466;8.468;2023-03-21T13:56:49;17.40;99.90
11112;DHT22;5609;49.466;8.468;2023-03-21T13:59:17;17.30;99.90
11112;DHT22;5609;49.466;8.468;2023-03-21T14:01:59;17.10;99.90
11112;DHT22;5609;49.466;8.468;2023-03-21T14:04:28;17.00;99.90
11112;DHT22;5609;49.466;8.468;2023-03-21T14:06:58;17.00;99.90
11112;DHT22;5609;49.466;8.468;2023-03-21T14:09:30;16.90;99.90
11112;DHT22;5609;49.466;8.468;2023-03-21T14:11:59;16.90;99.90
11112;DHT22;5609;49.466;8.468;2023-03-21T14:14:30;16.90;99.90
11112;DHT22;5609;49.466;8.468;2023-03-21T14:17:00;16.90;99.90
11112;DHT22;5609;49.466;8.468;2023-03-21T14:19:31;16.90;99.90
11112;DHT22;5609;49.466;8.468;2023-03-21T14:21:58;17.00;99.90
11112;DHT22;5609;49.466;8.468;2023-03-21T14:24:25;17.00;99.90
11112;DHT22;5609;49.466;8.468;2023-03-21T14:26:53;16.90;99.90
11112;DHT22;5609;49.466;8.468;2023-03-21T14:29:25;16.90;99.90
11112;DHT22;5609;49.466;8.468;2023-03-21T14:31:52;16.90;99.90
11112;DHT22;5609;49.466;8.468;2023-03-21T14:34:22;16.80;99.90
11112;DHT22;5609;49.466;8.468;2023-03-21T14:36:50;16.80;99.90
11112;DHT22;5609;49.466;8.468;2023-03-21T14:39:20;16.60;99.90
11112;DHT22;5609;49.466;8.468;2023-03-21T14:41:50;16.40;99.90
11112;DHT22;5609;49.466;8.468;2023-03-21T14:44:22;16.30;99.90
11112;DHT22;5609;49.466;8.468;2023-03-21T14:46:57;16.10;99.90
11112;DHT22;5609;49.466;8.468;2023-03-21T14:49:27;16.10;99.90
11112;DHT22;5609;49.466;8.468;2023-03-21T14:51:56;16.10;99.90
11112;DHT22;5609;49.466;8.468;2023-03-21T14:54:25;16.30;99.90
11112;DHT22;5609;49.466;8.468;2023-03-21T14:56:56;16.30;99.90
11112;DHT22;5609;49.466;8.468;2023-03-21T14:59:26;16.50;99.90
11112;DHT22;5609;49.466;8.468;2023-03-21T15:01:56;16.60;99.90
11112;DHT22;5609;49.466;8.468;2023-03-21T15:04:26;16.60;99.90
11112;DHT22;5609;49.466;8.468;2023-03-21T15:06:54;16.70;99.90
11112;DHT22;5609;49.466;8.468;2023-03-21T15:09:24;16.70;99.90
11112;DHT22;5609;49.466;8.468;2023-03-21T15:11:53;16.70;99.90
11112;DHT22;5609;49.466;8.468;2023-03-21T15:14:25;16.50;99.90
11112;DHT22;5609;49.466;8.468;2023-03-21T15:16:52;16.50;99.90
11112;DHT22;5609;49.466;8.468;2023-03-21T15:19:24;16.30;99.90
11112;DHT22;5609;49.466;8.468;2023-03-21T15:21:56;16.10;99.90
11112;DHT22;5609;49.466;8.468;2023-03-21T15:24:26;15.90;99.90
11112;DHT22;5609;49.466;8.468;2023-03-21T15:26:59;15.50;99.90
11112;DHT22;5609;49.466;8.468;2023-03-21T15:29:26;15.50;99.90
11112;DHT22;5609;49.466;8.468;2023-03-21T15:31:54;15.60;99.90
11112;DHT22;5609;49.466;8.468;2023-03-21T15:34:23;15.70;99.90
11112;DHT22;5609;49.466;8.468;2023-03-21T15:36:56;15.70;99.90
11112;DHT22;5609;49.466;8.468;2023-03-21T15:39:23;15.80;99.90
11112;DHT22;5609;49.466;8.468;2023-03-21T15:41:57;16.00;99.90
11112;DHT22;5609;49.466;8.468;2023-03-21T15:44:25;16.10;99.90
11112;DHT22;5609;49.466;8.468;2023-03-21T15:46:52;16.20;99.90
11112;DHT22;5609;49.466;8.468;2023-03-21T15:49:24;16.40;99.90
11112;DHT22;5609;49.466;8.468;2023-03-21T15:51:58;16.30;99.90
11112;DHT22;5609;49.466;8.468;2023-03-21T15:54:29;16.20;99.90
11112;DHT22;5609;49.466;8.468;2023-03-21T15:56:58;16.20;99.90
11112;DHT22;5609;49.466;8.468;2023-03-21T15:59:32;16.30;99.90
11112;DHT22;5609;49.466;8.468;2023-03-21T16:01:59;16.30;99.90
11112;DHT22;5609;49.466;8.468;2023-03-21T16:04:26;16.40;99.90
11112;DHT22;5609;49.466;8.468;2023-03-21T16:07:01;16.50;99.90
11112;DHT22;5609;49.466;8.468;2023-03-21T16:09:38;16.50;99.90
11112;DHT22;5609;49.466;8.468;2023-03-21T16:12:09;16.40;99.90
11112;DHT22;5609;49.466;8.468;2023-03-21T16:14:36;16.40;99.90
11112;DHT22;5609;49.466;8.468;2023-03-21T16:17:16;16.30;99.90
11112;DHT22;5609;49.466;8.468;2023-03-21T16:19:48;16.10;99.90
11112;DHT22;5609;49.466;8.468;2023-03-21T16:22:16;15.80;99.90